createdAt,value
2022-08-24T00:00:26.069Z,103013.56
2022-08-24T00:02:53.003Z,103030.38
2022-08-24T00:05:21.430Z,103034.94
2022-08-24T00:07:50.023Z,103032.44
2022-08-24T00:10:17.717Z,103048.47
2022-08-24T00:12:44.653Z,103048.53
2022-08-24T00:15:13.205Z,103061.84
2022-08-24T00:17:40.587Z,103064.59
2022-08-24T00:20:09.349Z,103074.34
2022-08-24T00:22:36.095Z,103083.91
2022-08-24T00:25:03.539Z,103104.31
2022-08-24T00:27:30.316Z,103103.47
2022-08-24T00:29:57.281Z,103111.47
2022-08-24T00:32:24.133Z,103128.34
2022-08-24T00:34:58.281Z,103140.78
2022-08-24T00:37:25.704Z,103152.34
2022-08-24T00:39:52.576Z,103174.56
2022-08-24T00:42:19.496Z,103190.47
2022-08-24T00:44:46.292Z,103207.22
2022-08-24T00:47:24.861Z,103222.31
2022-08-24T00:50:09.228Z,103233.06
2022-08-24T00:52:41.065Z,103249.84
2022-08-24T00:55:12.577Z,103272.09
2022-08-24T00:57:44.063Z,103286.50
2022-08-24T01:00:16.660Z,103293.03
2022-08-24T01:02:48.408Z,103300.22
2022-08-24T01:05:16.433Z,103318.00
2022-08-24T01:07:43.534Z,103334.84
2022-08-24T01:10:25.066Z,103345.47
2022-08-24T01:13:00.582Z,103358.88
2022-08-24T01:15:37.610Z,103366.28
2022-08-24T01:18:24.675Z,103363.97
2022-08-24T01:21:10.680Z,103367.72
2022-08-24T01:23:47.989Z,103374.91
2022-08-24T01:26:22.647Z,103382.03
2022-08-24T01:28:55.937Z,103392.66
2022-08-24T01:31:24.408Z,103411.09
2022-08-24T01:33:53.043Z,103434.75
2022-08-24T01:36:33.348Z,103447.88
2022-08-24T01:39:05.959Z,103455.84
2022-08-24T01:41:32.746Z,103476.19
2022-08-24T01:44:00.345Z,103484.13
2022-08-24T01:46:28.995Z,103497.53
2022-08-24T01:48:58.079Z,103508.19
2022-08-24T01:51:29.585Z,103526.69
2022-08-24T01:53:56.345Z,103545.28
2022-08-24T01:56:23.235Z,103545.38
2022-08-24T01:58:50.087Z,103553.38
2022-08-24T02:01:18.800Z,103556.13
2022-08-24T02:03:48.426Z,103555.38
2022-08-24T02:06:19.914Z,103560.72
2022-08-24T02:08:47.246Z,103571.31
2022-08-24T02:11:15.668Z,103574.84
2022-08-24T02:13:42.966Z,103573.19
2022-08-24T02:16:10.296Z,103567.13
2022-08-24T02:18:40.414Z,103584.00
2022-08-24T02:21:09.811Z,103592.03
2022-08-24T02:23:38.876Z,103597.38
2022-08-24T02:26:08.232Z,103609.72
2022-08-24T02:28:35.881Z,103634.34
2022-08-24T02:31:05.908Z,103642.34
2022-08-24T02:33:35.317Z,103651.22
2022-08-24T02:36:03.040Z,103661.91
2022-08-24T02:38:31.393Z,103673.47
2022-08-24T02:40:58.583Z,103677.00
2022-08-24T02:43:26.457Z,103695.56
2022-08-24T02:45:55.636Z,103699.94
2022-08-24T02:48:23.272Z,103712.31
2022-08-24T02:50:52.604Z,103722.00
2022-08-24T02:53:22.344Z,103722.00
2022-08-24T02:55:49.899Z,103732.59
2022-08-24T02:58:18.008Z,103734.41
2022-08-24T03:00:48.536Z,103740.59
2022-08-24T03:03:18.219Z,103749.47
2022-08-24T03:05:45.134Z,103754.72
2022-08-24T03:08:12.606Z,103757.38
2022-08-24T03:10:39.887Z,103755.66
2022-08-24T03:13:07.773Z,103766.28
2022-08-24T03:15:35.224Z,103771.59
2022-08-24T03:18:02.338Z,103770.75
2022-08-24T03:20:30.478Z,103780.50
2022-08-24T03:22:58.002Z,103791.13
2022-08-24T03:25:26.590Z,103792.84
2022-08-24T03:27:53.464Z,103791.13
2022-08-24T03:30:21.197Z,103798.22
2022-08-24T03:32:49.588Z,103794.72
2022-08-24T03:35:18.251Z,103802.69
2022-08-24T03:37:45.124Z,103799.19
2022-08-24T03:40:23.050Z,103803.66
2022-08-24T03:42:54.388Z,103799.22
2022-08-24T03:45:21.900Z,103804.53
2022-08-24T03:47:49.140Z,103800.19
2022-08-24T03:50:15.949Z,103794.91
2022-08-24T03:52:42.814Z,103790.56
2022-08-24T03:55:10.604Z,103780.03
2022-08-24T03:57:37.883Z,103784.44
2022-08-24T04:00:08.217Z,103795.91
2022-08-24T04:02:42.037Z,103799.41
2022-08-24T04:05:13.024Z,103817.06
2022-08-24T04:07:41.395Z,103817.94
2022-08-24T04:10:08.649Z,103820.63
2022-08-24T04:12:35.497Z,103818.84
2022-08-24T04:15:02.483Z,103828.56
2022-08-24T04:17:30.796Z,103822.41
2022-08-24T04:19:58.697Z,103819.78
2022-08-24T04:22:36.767Z,103824.25
2022-08-24T04:25:08.833Z,103823.38
2022-08-24T04:27:36.027Z,103817.19
2022-08-24T04:30:04.110Z,103827.69
2022-08-24T04:32:41.132Z,103825.03
2022-08-24T04:35:09.142Z,103824.16
2022-08-24T04:37:35.967Z,103824.16
2022-08-24T04:40:04.627Z,103817.13
2022-08-24T04:42:37.375Z,103819.81
2022-08-24T04:45:04.659Z,103811.88
2022-08-24T04:47:31.458Z,103805.81
2022-08-24T04:50:00.262Z,103789.00
2022-08-24T04:52:28.620Z,103799.53
2022-08-24T04:54:55.473Z,103813.63
2022-08-24T04:57:24.856Z,103811.81
2022-08-24T04:59:56.550Z,103817.00
2022-08-24T05:02:24.504Z,103820.34
2022-08-24T05:04:55.291Z,103829.16
2022-08-24T05:07:22.456Z,103824.69
2022-08-24T05:09:52.352Z,103821.13
2022-08-24T05:12:20.868Z,103815.88
2022-08-24T05:14:59.386Z,103821.13
2022-08-24T05:17:27.663Z,103822.88
2022-08-24T05:19:54.607Z,103833.44
2022-08-24T05:22:21.801Z,103835.97
2022-08-24T05:24:53.191Z,103845.56
2022-08-24T05:27:21.317Z,103864.97
2022-08-24T05:29:54.079Z,103864.72
2022-08-24T05:32:21.014Z,103886.53
2022-08-24T05:34:49.368Z,103889.84
2022-08-24T05:37:16.218Z,103894.09
2022-08-24T05:40:14.902Z,103893.06
2022-08-24T05:42:44.536Z,103887.78
2022-08-24T05:45:12.851Z,103864.59
2022-08-24T05:47:39.895Z,103853.84
2022-08-24T05:50:26.908Z,103845.81
2022-08-24T05:52:53.900Z,103831.50
2022-08-24T05:55:20.835Z,103824.06
2022-08-24T05:57:47.579Z,103823.69
2022-08-24T06:00:21.563Z,103828.53
2022-08-24T06:02:53.848Z,103831.63
2022-08-24T06:05:22.133Z,103839.69
2022-08-24T06:07:49.916Z,103852.47
2022-08-24T06:10:35.805Z,103868.56
2022-08-24T06:13:05.645Z,103857.63
2022-08-24T06:15:33.105Z,103829.53
2022-08-24T06:18:00.043Z,103755.13
2022-08-24T06:20:27.151Z,103652.84
2022-08-24T06:22:54.079Z,103513.34
2022-08-24T06:25:41.587Z,103313.38
2022-08-24T06:28:08.335Z,103103.88
2022-08-24T06:30:35.244Z,102882.97
2022-08-24T06:33:11.991Z,102666.13
2022-08-24T06:35:46.842Z,102445.56
2022-08-24T06:38:14.359Z,102304.63
2022-08-24T06:40:42.892Z,102219.53
2022-08-24T06:43:11.085Z,102158.28
2022-08-24T06:45:45.490Z,102102.88
2022-08-24T06:48:15.664Z,102077.22
2022-08-24T06:50:44.141Z,102038.13
2022-08-24T06:53:14.875Z,102029.13
2022-08-24T06:55:57.510Z,102021.97
2022-08-24T06:58:31.371Z,102013.28
2022-08-24T07:01:10.210Z,101987.63
2022-08-24T07:03:37.725Z,101988.41
2022-08-24T07:06:19.060Z,101982.06
2022-08-24T07:08:46.452Z,101976.94
2022-08-24T07:11:17.623Z,101977.25
2022-08-24T07:13:48.264Z,101977.84
2022-08-24T07:16:16.457Z,101973.88
2022-08-24T07:18:49.315Z,101980.00
2022-08-24T07:21:19.848Z,101975.44
2022-08-24T07:23:50.378Z,101976.56
2022-08-24T07:26:22.786Z,101977.16
2022-08-24T07:29:01.315Z,101979.09
2022-08-24T07:31:35.822Z,101969.50
2022-08-24T07:34:19.751Z,101973.13
2022-08-24T07:36:46.587Z,101971.06
2022-08-24T07:39:14.625Z,101969.38
2022-08-24T07:42:02.527Z,101976.81
2022-08-24T07:44:31.769Z,101977.88
2022-08-24T07:47:04.134Z,101982.94
2022-08-24T07:49:42.508Z,101982.78
2022-08-24T07:52:10.663Z,101973.34
2022-08-24T07:54:37.938Z,101979.53
2022-08-24T07:57:06.664Z,101977.88
2022-08-24T07:59:36.065Z,101980.66
2022-08-24T08:02:05.257Z,101981.16
2022-08-24T08:04:32.330Z,101967.78
2022-08-24T08:07:03.276Z,101976.03
2022-08-24T08:09:32.573Z,101978.75
2022-08-24T08:11:59.726Z,101980.34
2022-08-24T08:14:27.016Z,101978.06
2022-08-24T08:16:54.207Z,101980.78
2022-08-24T08:19:22.217Z,101980.13
2022-08-24T08:22:10.427Z,101986.66
2022-08-24T08:24:57.745Z,101983.16
2022-08-24T08:27:25.230Z,101992.00
2022-08-24T08:29:52.619Z,101991.84
2022-08-24T08:32:21.279Z,101986.72
2022-08-24T08:34:50.488Z,101988.41
2022-08-24T08:37:18.187Z,101989.06
2022-08-24T08:39:45.505Z,101994.06
2022-08-24T08:42:19.010Z,101988.25
2022-08-24T08:45:06.661Z,101989.53
2022-08-24T08:48:15.494Z,101996.78
2022-08-24T08:50:54.602Z,101990.63
2022-08-24T08:53:53.783Z,101988.88
2022-08-24T08:56:49.922Z,101983.91
2022-08-24T08:59:43.259Z,101979.69
2022-08-24T09:02:44.230Z,101990.16
2022-08-24T09:05:37.219Z,101994.28
2022-08-24T09:08:22.251Z,101994.50
2022-08-24T09:11:08.309Z,101987.75
2022-08-24T09:14:04.666Z,101986.91
2022-08-24T09:16:58.044Z,101987.28
2022-08-24T09:19:57.861Z,101993.69
2022-08-24T09:22:25.294Z,101985.38
2022-08-24T09:24:55.097Z,101984.03
2022-08-24T09:27:50.373Z,101984.28
2022-08-24T09:30:44.922Z,101981.59
2022-08-24T09:33:22.317Z,101983.06
2022-08-24T09:35:51.683Z,101983.84
2022-08-24T09:38:29.861Z,101983.25
2022-08-24T09:41:18.420Z,101975.81
2022-08-24T09:44:22.945Z,101973.00
2022-08-24T09:46:59.158Z,101976.47
2022-08-24T09:50:11.100Z,101978.47
2022-08-24T09:52:47.429Z,101980.75
2022-08-24T09:55:38.398Z,101984.50
2022-08-24T09:58:31.145Z,101979.31
2022-08-24T10:01:22.949Z,101980.84
2022-08-24T10:04:16.012Z,101986.59
2022-08-24T10:07:01.517Z,101977.84
2022-08-24T10:09:51.950Z,101985.84
2022-08-24T10:12:42.684Z,101981.09
2022-08-24T10:15:26.837Z,101972.44
2022-08-24T10:18:24.177Z,101979.19
2022-08-24T10:21:12.358Z,101973.91
2022-08-24T10:23:50.866Z,101974.19
2022-08-24T10:26:53.967Z,101969.66
2022-08-24T10:29:41.779Z,101972.09
2022-08-24T10:32:17.856Z,101975.50
2022-08-24T10:34:54.491Z,101972.63
2022-08-24T10:38:25.252Z,101964.94
2022-08-24T10:41:39.271Z,101977.13
2022-08-24T10:44:37.228Z,101973.69
2022-08-24T10:47:20.904Z,101968.97
2022-08-24T10:50:09.427Z,101963.81
2022-08-24T10:52:53.353Z,101980.50
2022-08-24T10:55:24.883Z,101971.19
2022-08-24T10:58:10.308Z,101957.13
2022-08-24T11:00:37.538Z,101962.75
2022-08-24T11:03:14.598Z,101962.81
2022-08-24T11:05:53.891Z,101955.31
2022-08-24T11:08:27.834Z,101951.69
2022-08-24T11:11:07.029Z,101947.06
2022-08-24T11:13:36.619Z,101950.13
2022-08-24T11:16:05.554Z,101944.91
2022-08-24T11:18:51.377Z,101943.53
2022-08-24T11:21:33.126Z,101948.66
2022-08-24T11:24:23.999Z,101944.88
2022-08-24T11:26:56.530Z,101952.03
2022-08-24T11:29:31.501Z,101957.28
2022-08-24T11:31:59.079Z,101952.78
2022-08-24T11:34:36.835Z,101957.59
2022-08-24T11:37:10.704Z,101955.13
2022-08-24T11:39:38.176Z,101954.84
2022-08-24T11:42:14.608Z,101954.72
2022-08-24T11:45:09.456Z,101946.09
2022-08-24T11:47:53.082Z,101952.78
2022-08-24T11:50:49.814Z,101948.25
2022-08-24T11:56:28.784Z,101956.78
2022-08-24T11:59:04.827Z,101949.16
2022-08-24T12:01:40.642Z,101952.19
2022-08-24T12:04:20.402Z,101960.06
2022-08-24T12:06:49.777Z,101955.78
2022-08-24T12:09:38.480Z,101948.09
2022-08-24T12:12:24.370Z,101960.25
2022-08-24T12:15:01.939Z,101957.22
2022-08-24T12:17:45.230Z,101967.16
2022-08-24T12:20:18.192Z,101970.91
2022-08-24T12:22:45.434Z,101970.53
2022-08-24T12:25:31.764Z,101969.94
2022-08-24T12:27:59.203Z,101968.75
2022-08-24T12:30:27.143Z,101966.06
2022-08-24T12:32:59.101Z,101965.31
2022-08-24T12:35:38.098Z,101963.59
2022-08-24T12:38:13.962Z,101961.94
2022-08-24T12:41:00.657Z,101961.31
2022-08-24T12:43:51.831Z,101969.97
2022-08-24T12:46:23.877Z,101972.56
2022-08-24T12:48:57.029Z,101975.66
2022-08-24T12:52:01.536Z,101975.84
2022-08-24T12:55:05.888Z,101973.16
2022-08-24T12:57:51.835Z,101981.28
2022-08-24T13:00:21.177Z,101982.28
2022-08-24T13:02:58.616Z,101978.44
2022-08-24T13:05:37.304Z,101979.53
2022-08-24T13:08:21.230Z,101966.44
2022-08-24T13:11:06.039Z,101969.38
2022-08-24T13:14:04.847Z,101968.56
2022-08-24T13:16:52.012Z,101977.25
2022-08-24T13:19:34.109Z,101977.94
2022-08-24T13:22:32.745Z,101973.81
2022-08-24T13:25:02.580Z,101972.41
2022-08-24T13:27:38.453Z,101967.16
2022-08-24T13:30:20.520Z,101966.69
2022-08-24T13:32:57.500Z,101958.13
2022-08-24T13:35:30.667Z,101955.72
2022-08-24T13:38:39.824Z,101949.69
2022-08-24T13:41:09.002Z,101944.63
2022-08-24T13:43:45.687Z,101946.97
2022-08-24T13:46:36.922Z,101954.41
2022-08-24T13:49:34.941Z,101951.34
2022-08-24T13:52:46.112Z,101957.34
2022-08-24T13:55:31.485Z,101956.75
2022-08-24T13:58:36.552Z,101947.84
2022-08-24T14:01:23.956Z,101954.56
2022-08-24T14:04:24.677Z,101959.06
2022-08-24T14:07:02.193Z,101949.09
2022-08-24T14:09:40.362Z,101952.41
2022-08-24T14:12:13.191Z,101950.63
2022-08-24T14:14:57.278Z,101947.97
2022-08-24T14:17:47.613Z,101954.75
2022-08-24T14:20:30.568Z,101953.78
2022-08-24T14:23:00.551Z,101956.50
2022-08-24T14:25:33.237Z,101960.38
2022-08-24T14:28:00.020Z,101955.13
2022-08-24T14:30:26.765Z,101949.56
2022-08-24T14:32:59.240Z,101960.91
2022-08-24T14:35:48.250Z,101957.66
2022-08-24T14:38:24.014Z,101955.97
2022-08-24T14:41:17.929Z,101956.69
2022-08-24T14:44:03.756Z,101962.06
2022-08-24T14:46:53.189Z,101960.75
2022-08-24T14:49:35.603Z,101952.56
2022-08-24T14:52:37.421Z,101952.41
2022-08-24T14:55:40.049Z,101946.50
2022-08-24T14:58:11.836Z,101949.91
2022-08-24T15:01:09.749Z,101946.28
2022-08-24T15:04:32.049Z,101945.91
2022-08-24T15:07:24.441Z,101945.28
2022-08-24T15:09:52.938Z,101946.22
2022-08-24T15:12:38.350Z,101927.75
2022-08-24T15:15:27.134Z,101932.16
2022-08-24T15:18:06.425Z,101936.88
2022-08-24T15:20:36.390Z,101933.09
2022-08-24T15:23:35.454Z,101924.63
2022-08-24T15:26:09.488Z,101932.84
2022-08-24T15:28:37.643Z,101925.19
2022-08-24T15:31:27.545Z,101925.56
2022-08-24T15:34:05.375Z,101927.81
2022-08-24T15:36:34.216Z,101925.31
2022-08-24T15:39:03.558Z,101928.41
2022-08-24T15:41:35.556Z,101924.91
2022-08-24T15:44:12.521Z,101931.13
2022-08-24T15:46:53.431Z,101926.63
2022-08-24T15:49:35.984Z,101937.06
2022-08-24T15:52:09.271Z,101944.13
2022-08-24T15:54:55.690Z,101951.06
2022-08-24T15:57:25.466Z,101945.88
2022-08-24T15:59:55.731Z,101957.19
2022-08-24T16:02:30.586Z,101955.66
2022-08-24T16:05:14.119Z,101955.97
2022-08-24T16:08:06.676Z,101960.53
2022-08-24T16:10:39.298Z,101954.91
2022-08-24T16:13:17.563Z,101954.19
2022-08-24T16:15:53.505Z,101963.81
2022-08-24T16:18:21.011Z,101954.00
2022-08-24T16:20:49.412Z,101954.31
2022-08-24T16:23:33.171Z,101956.06
2022-08-24T16:26:47.438Z,101956.91
2022-08-24T16:29:39.129Z,101957.84
2022-08-24T16:32:33.758Z,101967.97
2022-08-24T16:35:19.280Z,101967.72
2022-08-24T16:37:46.212Z,101962.78
2022-08-24T16:40:14.150Z,101972.69
2022-08-24T16:42:41.550Z,101974.59
2022-08-24T16:45:11.209Z,101971.47
2022-08-24T16:47:38.136Z,101981.91
2022-08-24T16:50:06.208Z,101985.75
2022-08-24T16:52:33.045Z,101974.97
2022-08-24T16:55:01.516Z,101983.66
2022-08-24T16:57:31.283Z,101987.00
2022-08-24T16:59:58.566Z,101986.25
2022-08-24T17:02:28.545Z,101991.50
2022-08-24T17:04:56.189Z,101992.25
2022-08-24T17:07:25.513Z,101994.44
2022-08-24T17:09:53.505Z,101999.13
2022-08-24T17:12:21.055Z,102003.84
2022-08-24T17:14:48.114Z,102015.66
2022-08-24T17:17:17.980Z,102023.16
2022-08-24T17:19:50.276Z,102033.22
2022-08-24T17:22:17.448Z,102044.00
2022-08-24T17:24:45.424Z,102047.25
2022-08-24T17:27:13.960Z,102063.19
2022-08-24T17:29:43.635Z,102057.50
2022-08-24T17:32:11.343Z,102077.06
2022-08-24T17:34:38.929Z,102085.97
2022-08-24T17:37:07.259Z,102068.38
2022-08-24T17:39:34.183Z,102072.56
2022-08-24T17:42:01.820Z,102084.78
2022-08-24T17:44:33.295Z,102094.66
2022-08-24T17:47:03.741Z,102113.50
2022-08-24T17:49:32.649Z,102125.72
2022-08-24T17:51:59.546Z,102135.31
2022-08-24T17:54:28.407Z,102155.63
2022-08-24T17:56:55.913Z,102170.97
2022-08-24T17:59:29.186Z,102175.44
2022-08-24T18:02:05.110Z,102192.59
2022-08-24T18:04:34.214Z,102210.69
2022-08-24T18:07:04.545Z,102229.84
2022-08-24T18:09:35.182Z,102237.31
2022-08-24T18:12:05.358Z,102251.00
2022-08-24T18:14:34.515Z,102253.28
2022-08-24T18:17:05.638Z,102255.72
2022-08-24T18:19:33.823Z,102268.91
2022-08-24T18:22:01.934Z,102267.94
2022-08-24T18:24:32.614Z,102281.78
2022-08-24T18:27:21.720Z,102289.34
2022-08-24T18:29:54.706Z,102296.66
2022-08-24T18:32:21.839Z,102313.09
2022-08-24T18:34:48.919Z,102324.19
2022-08-24T18:37:15.857Z,102326.00
2022-08-24T18:39:42.645Z,102333.31
2022-08-24T18:42:11.469Z,102334.47
2022-08-24T18:44:39.524Z,102339.41
2022-08-24T18:47:07.198Z,102350.50
2022-08-24T18:49:35.581Z,102349.97
2022-08-24T18:52:06.186Z,102365.44
2022-08-24T18:54:37.364Z,102389.69
2022-08-24T18:57:07.030Z,102397.81
2022-08-24T18:59:35.476Z,102408.41
2022-08-24T19:02:31.895Z,102414.28
2022-08-24T19:05:11.183Z,102436.88
2022-08-24T19:07:41.362Z,102449.72
2022-08-24T19:10:10.334Z,102460.78
2022-08-24T19:12:42.537Z,102476.06
2022-08-24T19:15:35.709Z,102494.03
2022-08-24T19:18:02.426Z,102497.91
2022-08-24T19:20:30.795Z,102499.78
2022-08-24T19:23:05.600Z,102510.97
2022-08-24T19:25:33.183Z,102528.91
2022-08-24T19:27:59.993Z,102527.78
2022-08-24T19:30:28.093Z,102505.38
2022-08-24T19:32:55.990Z,102474.06
2022-08-24T19:35:22.994Z,102450.84
2022-08-24T19:37:50.110Z,102434.81
2022-08-24T19:40:17.987Z,102415.16
2022-08-24T19:42:50.871Z,102395.84
2022-08-24T19:45:42.857Z,102381.84
2022-08-24T19:48:11.014Z,102360.47
2022-08-24T19:50:38.270Z,102354.09
2022-08-24T19:53:06.762Z,102340.75
2022-08-24T19:55:33.712Z,102324.59
2022-08-24T19:58:08.933Z,102314.84
2022-08-24T20:00:58.059Z,102307.09
2022-08-24T20:03:25.201Z,102307.34
2022-08-24T20:05:52.082Z,102301.81
2022-08-24T20:08:20.357Z,102296.91
2022-08-24T20:10:47.818Z,102290.63
2022-08-24T20:13:14.658Z,102288.13
2022-08-24T20:15:41.848Z,102297.38
2022-08-24T20:18:08.869Z,102295.72
2022-08-24T20:20:35.760Z,102287.69
2022-08-24T20:23:06.074Z,102284.06
2022-08-24T20:25:39.604Z,102288.47
2022-08-24T20:30:55.558Z,102275.25
2022-08-24T20:33:23.782Z,102270.28
2022-08-24T20:35:51.146Z,102278.47
2022-08-24T20:38:20.189Z,102271.50
2022-08-24T20:40:48.396Z,102281.47
2022-08-24T20:43:15.394Z,102268.38
2022-08-24T20:45:42.468Z,102266.56
2022-08-24T20:48:13.919Z,102271.22
2022-08-24T20:50:44.529Z,102272.16
2022-08-24T20:53:12.284Z,102276.56
2022-08-24T20:55:41.193Z,102280.31
2022-08-24T20:58:08.246Z,102287.84
2022-08-24T21:00:35.134Z,102301.53
2022-08-24T21:03:02.380Z,102309.53
2022-08-24T21:05:29.208Z,102308.69
2022-08-24T21:07:57.955Z,102320.06
2022-08-24T21:10:27.114Z,102318.56
2022-08-24T21:12:55.197Z,102329.59
2022-08-24T21:15:25.197Z,102345.69
2022-08-24T21:17:52.916Z,102354.72
2022-08-24T21:20:20.662Z,102361.88
2022-08-24T21:22:47.670Z,102367.06
2022-08-24T21:25:17.438Z,102377.59
2022-08-24T21:27:46.606Z,102384.63
2022-08-24T21:30:17.221Z,102384.63
2022-08-24T21:33:03.276Z,102388.28
2022-08-24T21:35:31.137Z,102392.09
2022-08-24T21:37:59.051Z,102393.19
2022-08-24T21:40:26.789Z,102398.47
2022-08-24T21:42:53.804Z,102397.53
2022-08-24T21:45:21.186Z,102363.06
2022-08-24T21:47:48.827Z,102348.56
2022-08-24T21:50:18.068Z,102327.91
2022-08-24T21:52:44.915Z,102298.13
2022-08-24T21:55:15.097Z,102287.72
2022-08-24T21:57:42.185Z,102284.06
2022-08-24T22:00:15.229Z,102279.22
2022-08-24T22:02:42.158Z,102269.75
2022-08-24T22:05:09.390Z,102277.44
2022-08-24T22:07:36.742Z,102281.41
2022-08-24T22:10:04.836Z,102282.00
2022-08-24T22:12:31.757Z,102287.69
2022-08-24T22:14:58.553Z,102298.63
2022-08-24T22:17:25.328Z,102288.88
2022-08-24T22:19:52.105Z,102289.16
2022-08-24T22:22:18.950Z,102283.81
2022-08-24T22:24:45.737Z,102285.78
2022-08-24T22:27:13.248Z,102280.44
2022-08-24T22:29:40.008Z,102288.94
2022-08-24T22:32:06.946Z,102291.84
2022-08-24T22:34:36.490Z,102291.50
2022-08-24T22:37:05.103Z,102283.94
2022-08-24T22:39:32.057Z,102289.44
2022-08-24T22:41:59.137Z,102292.28
2022-08-24T22:44:27.716Z,102284.44
2022-08-24T22:46:57.504Z,102275.47
2022-08-24T22:49:27.949Z,102278.03
2022-08-24T22:51:54.951Z,102277.19
2022-08-24T22:54:23.419Z,102282.53
2022-08-24T22:56:53.814Z,102296.38
2022-08-24T22:59:41.525Z,102312.09
2022-08-24T23:02:14.039Z,102335.47
2022-08-24T23:04:44.409Z,102339.16
2022-08-24T23:07:12.468Z,102358.16
2022-08-24T23:09:44.210Z,102357.75
2022-08-24T23:12:14.089Z,102372.50
2022-08-24T23:14:41.716Z,102396.16
2022-08-24T23:17:08.914Z,102406.53
2022-08-24T23:19:54.835Z,102430.22
2022-08-24T23:22:22.094Z,102450.50
2022-08-24T23:24:49.152Z,102464.94
2022-08-24T23:27:16.964Z,102478.81
2022-08-24T23:29:44.582Z,102504.03
2022-08-24T23:32:12.150Z,102525.66
2022-08-24T23:34:39.445Z,102538.38
2022-08-24T23:37:06.301Z,102555.56
2022-08-24T23:39:33.362Z,102574.44
2022-08-24T23:42:00.484Z,102589.75
2022-08-24T23:44:29.242Z,102598.91
2022-08-24T23:46:58.011Z,102609.66
2022-08-24T23:49:29.668Z,102624.97
2022-08-24T23:51:57.953Z,102630.44
2022-08-24T23:54:25.032Z,102636.72
2022-08-24T23:56:52.839Z,102635.88
2022-08-24T23:59:27.570Z,102630.44
